createdAt,value
2019-01-29T00:00:35.891Z,99.09
2019-01-29T00:03:06.695Z,99.07
2019-01-29T00:05:35.243Z,99.25
2019-01-29T00:08:03.677Z,99.23
2019-01-29T00:10:32.509Z,99.24
2019-01-29T00:13:01.419Z,99.32
2019-01-29T00:15:29.704Z,99.32
2019-01-29T00:17:58.223Z,98.98
2019-01-29T00:20:27.429Z,98.98
2019-01-29T00:22:56.230Z,99.08
2019-01-29T00:25:24.866Z,99.08
2019-01-29T00:27:54.870Z,99.31
2019-01-29T00:30:24.635Z,99.31
2019-01-29T00:32:53.541Z,99.12
2019-01-29T00:35:22.119Z,99.05
2019-01-29T00:37:50.639Z,99.34
2019-01-29T00:40:18.891Z,99.34
2019-01-29T00:42:48.208Z,99.21
2019-01-29T00:45:17.424Z,99.25
2019-01-29T00:47:46.067Z,99.36
2019-01-29T00:50:14.694Z,99.19
2019-01-29T00:52:44.279Z,99.44
2019-01-29T00:55:14.159Z,99.44
2019-01-29T00:57:42.893Z,99.63
2019-01-29T01:00:18.976Z,99.71
2019-01-29T01:02:47.348Z,99.71
2019-01-29T01:05:16.606Z,99.68
2019-01-29T01:07:45.348Z,99.81
2019-01-29T01:10:16.228Z,100.00
2019-01-29T01:12:44.412Z,100.00
2019-01-29T01:15:13.414Z,99.97
2019-01-29T01:17:41.552Z,100.00
2019-01-29T01:20:13.153Z,99.98
2019-01-29T01:22:50.408Z,99.98
2019-01-29T01:25:12.986Z,99.60
2019-01-29T01:27:41.421Z,99.60
2019-01-29T01:30:13.117Z,99.95
2019-01-29T01:32:41.287Z,99.95
2019-01-29T01:35:11.003Z,99.80
2019-01-29T01:37:39.179Z,99.95
2019-01-29T01:40:11.341Z,99.95
2019-01-29T01:42:39.589Z,100.00
2019-01-29T01:45:08.925Z,100.00
2019-01-29T01:47:37.912Z,99.92
2019-01-29T01:50:07.599Z,99.82
2019-01-29T01:52:36.163Z,99.82
2019-01-29T01:55:06.343Z,99.79
2019-01-29T01:57:34.860Z,99.79
2019-01-29T02:00:03.159Z,99.77
2019-01-29T02:02:32.432Z,99.57
2019-01-29T02:05:00.546Z,99.92
2019-01-29T02:07:28.861Z,99.92
2019-01-29T02:09:58.220Z,99.71
2019-01-29T02:12:26.511Z,99.47
2019-01-29T02:14:56.119Z,99.59
2019-01-29T02:17:24.647Z,99.59
2019-01-29T02:19:52.812Z,99.20
2019-01-29T02:22:21.163Z,99.20
2019-01-29T02:24:50.303Z,99.25
2019-01-29T02:27:18.621Z,99.36
2019-01-29T02:29:46.784Z,98.80
2019-01-29T02:32:14.928Z,99.19
2019-01-29T02:34:44.058Z,99.19
2019-01-29T02:37:12.371Z,99.06
2019-01-29T02:39:40.597Z,99.03
2019-01-29T02:42:09.718Z,98.83
2019-01-29T02:44:38.510Z,98.93
2019-01-29T02:47:07.141Z,98.70
2019-01-29T02:49:35.360Z,98.70
2019-01-29T02:52:03.788Z,98.80
2019-01-29T02:54:32.295Z,98.76
2019-01-29T02:57:00.592Z,98.87
2019-01-29T02:59:29.074Z,99.14
2019-01-29T03:01:57.885Z,99.14
2019-01-29T03:04:26.010Z,99.05
2019-01-29T03:06:54.492Z,99.01
2019-01-29T03:09:23.893Z,99.16
2019-01-29T03:11:52.414Z,99.20
2019-01-29T03:14:20.470Z,98.91
2019-01-29T03:16:48.820Z,98.91
2019-01-29T03:19:16.995Z,99.21
2019-01-29T03:21:45.606Z,99.37
2019-01-29T03:24:13.943Z,99.50
2019-01-29T03:26:42.888Z,99.50
2019-01-29T03:29:11.051Z,99.34
2019-01-29T03:31:41.010Z,99.42
2019-01-29T03:34:09.244Z,99.41
2019-01-29T03:36:37.518Z,99.36
2019-01-29T03:39:08.011Z,99.32
2019-01-29T03:41:36.727Z,99.24
2019-01-29T03:44:05.042Z,99.16
2019-01-29T03:46:33.343Z,99.16
2019-01-29T03:49:01.612Z,99.08
2019-01-29T03:51:29.835Z,99.08
2019-01-29T03:53:58.170Z,99.39
2019-01-29T03:56:26.802Z,99.39
2019-01-29T03:58:54.889Z,99.14
2019-01-29T04:04:25.992Z,99.02
2019-01-29T04:07:13.065Z,99.09
2019-01-29T04:10:00.264Z,99.04
2019-01-29T04:12:47.495Z,98.95
2019-01-29T04:15:34.387Z,98.95
2019-01-29T04:18:21.002Z,98.95
2019-01-29T04:21:08.160Z,98.95
2019-01-29T04:23:54.535Z,98.95
2019-01-29T04:26:41.348Z,98.92
2019-01-29T04:29:28.522Z,98.69
2019-01-29T04:31:56.853Z,98.69
2019-01-29T04:34:25.028Z,98.86
2019-01-29T04:36:53.180Z,98.86
2019-01-29T04:39:22.079Z,98.90
2019-01-29T04:41:50.520Z,98.90
2019-01-29T04:44:18.617Z,98.99
2019-01-29T04:46:47.103Z,98.74
2019-01-29T04:49:15.985Z,98.96
2019-01-29T04:51:44.069Z,98.96
2019-01-29T04:54:12.423Z,98.80
2019-01-29T04:56:40.765Z,98.86
2019-01-29T04:59:09.324Z,98.94
2019-01-29T05:01:37.988Z,98.72
2019-01-29T05:04:06.310Z,98.72
2019-01-29T05:06:37.626Z,98.67
2019-01-29T05:09:08.201Z,98.40
2019-01-29T05:11:36.490Z,98.40
2019-01-29T05:14:05.023Z,98.29
2019-01-29T05:16:33.084Z,98.24
2019-01-29T05:19:01.535Z,98.24
2019-01-29T05:21:31.778Z,98.15
2019-01-29T05:24:06.688Z,98.11
2019-01-29T05:26:31.182Z,97.85
2019-01-29T05:28:59.282Z,98.13
2019-01-29T05:31:28.373Z,98.13
2019-01-29T05:33:56.964Z,97.99
2019-01-29T05:36:25.194Z,97.92
2019-01-29T05:38:53.184Z,97.92
2019-01-29T05:41:22.127Z,97.90
2019-01-29T05:43:50.951Z,97.81
2019-01-29T05:46:19.237Z,97.75
2019-01-29T05:48:48.154Z,97.83
2019-01-29T05:51:16.526Z,97.83
2019-01-29T05:53:46.311Z,97.64
2019-01-29T05:56:14.507Z,97.64
2019-01-29T05:58:42.636Z,97.40
2019-01-29T06:01:11.672Z,97.21
2019-01-29T06:03:42.931Z,97.40
2019-01-29T06:06:11.214Z,97.40
2019-01-29T06:08:40.373Z,97.57
2019-01-29T06:11:08.539Z,97.65
2019-01-29T06:13:36.739Z,97.75
2019-01-29T06:16:05.091Z,97.79
2019-01-29T06:18:33.100Z,97.89
2019-01-29T06:21:01.250Z,98.02
2019-01-29T06:23:30.856Z,98.11
2019-01-29T06:25:59.042Z,98.15
2019-01-29T06:28:27.277Z,98.24
2019-01-29T06:30:55.307Z,98.27
2019-01-29T06:33:23.965Z,97.97
2019-01-29T06:35:52.865Z,98.10
2019-01-29T06:38:20.843Z,98.10
2019-01-29T06:40:49.052Z,98.50
2019-01-29T06:43:17.736Z,98.43
2019-01-29T06:45:45.961Z,98.64
2019-01-29T06:48:14.619Z,98.64
2019-01-29T06:50:42.684Z,98.65
2019-01-29T06:53:14.328Z,98.65
2019-01-29T06:55:42.559Z,98.98
2019-01-29T06:58:10.810Z,98.98
2019-01-29T07:00:39.619Z,98.64
2019-01-29T07:03:08.505Z,98.64
2019-01-29T07:05:36.694Z,98.95
2019-01-29T07:08:05.709Z,98.94
2019-01-29T07:10:34.121Z,99.10
2019-01-29T07:13:02.749Z,99.10
2019-01-29T07:15:49.456Z,98.94
2019-01-29T07:18:40.262Z,99.08
2019-01-29T07:21:09.613Z,99.08
2019-01-29T07:23:38.144Z,98.99
2019-01-29T07:26:06.862Z,98.99
2019-01-29T07:28:35.729Z,98.72
2019-01-29T07:31:06.553Z,98.72
2019-01-29T07:33:35.529Z,98.71
2019-01-29T07:36:04.075Z,98.66
2019-01-29T07:38:32.169Z,98.66
2019-01-29T07:41:00.363Z,98.40
2019-01-29T07:43:28.648Z,98.46
2019-01-29T07:45:57.386Z,98.38
2019-01-29T07:48:27.234Z,98.31
2019-01-29T07:50:55.838Z,98.25
2019-01-29T07:53:24.344Z,98.14
2019-01-29T07:55:53.356Z,97.88
2019-01-29T07:58:21.688Z,97.88
2019-01-29T08:00:50.237Z,98.08
2019-01-29T08:03:18.540Z,98.04
2019-01-29T08:05:46.824Z,97.84
2019-01-29T08:08:15.144Z,97.84
2019-01-29T08:10:44.449Z,97.77
2019-01-29T08:13:13.505Z,97.57
2019-01-29T08:15:41.809Z,97.57
2019-01-29T08:18:10.002Z,97.17
2019-01-29T08:20:40.232Z,96.94
2019-01-29T08:23:08.853Z,96.88
2019-01-29T08:25:37.761Z,96.86
2019-01-29T08:28:06.840Z,96.79
2019-01-29T08:30:37.145Z,96.79
2019-01-29T08:33:06.117Z,97.50
2019-01-29T08:35:34.613Z,97.50
2019-01-29T08:38:02.927Z,97.32
2019-01-29T08:40:34.122Z,97.46
2019-01-29T08:43:03.446Z,97.46
2019-01-29T08:45:31.936Z,96.92
2019-01-29T08:48:00.282Z,96.59
2019-01-29T08:50:29.303Z,96.30
2019-01-29T08:52:58.763Z,96.18
2019-01-29T08:55:27.147Z,96.18
2019-01-29T08:57:55.628Z,96.03
2019-01-29T09:00:24.202Z,96.03
2019-01-29T09:02:52.401Z,96.09
2019-01-29T09:05:21.156Z,95.93
2019-01-29T09:07:49.287Z,96.01
2019-01-29T09:10:17.768Z,95.84
2019-01-29T09:12:45.945Z,95.75
2019-01-29T09:15:15.359Z,95.52
2019-01-29T09:17:43.555Z,95.41
2019-01-29T09:20:12.887Z,95.45
2019-01-29T09:22:41.303Z,95.71
2019-01-29T09:25:19.109Z,95.92
2019-01-29T09:27:41.617Z,96.02
2019-01-29T09:30:13.138Z,95.77
2019-01-29T09:32:41.836Z,95.80
2019-01-29T09:35:10.179Z,95.43
2019-01-29T09:37:38.637Z,95.28
2019-01-29T09:40:11.499Z,95.35
2019-01-29T09:42:40.559Z,95.50
2019-01-29T09:45:10.848Z,95.17
2019-01-29T09:47:39.688Z,95.06
2019-01-29T09:50:08.675Z,95.01
2019-01-29T09:52:36.932Z,95.17
2019-01-29T09:55:08.145Z,95.07
2019-01-29T09:57:38.437Z,95.31
2019-01-29T10:00:10.192Z,94.81
2019-01-29T10:02:38.369Z,94.63
2019-01-29T10:05:07.293Z,94.63
2019-01-29T10:07:35.805Z,93.51
2019-01-29T10:10:04.579Z,93.51
2019-01-29T10:12:32.801Z,93.98
2019-01-29T10:15:01.521Z,93.79
2019-01-29T10:17:30.101Z,93.34
2019-01-29T10:20:02.809Z,93.25
2019-01-29T10:22:28.545Z,93.71
2019-01-29T10:24:57.089Z,93.64
2019-01-29T10:27:25.212Z,93.42
2019-01-29T10:29:54.822Z,93.12
2019-01-29T10:32:27.424Z,93.12
2019-01-29T10:34:58.693Z,92.72
2019-01-29T10:37:26.933Z,92.67
2019-01-29T10:39:55.316Z,92.28
2019-01-29T10:42:23.619Z,92.17
2019-01-29T10:44:51.826Z,91.86
2019-01-29T10:47:20.172Z,91.66
2019-01-29T10:49:50.378Z,91.71
2019-01-29T10:52:18.683Z,91.33
2019-01-29T10:54:46.802Z,91.30
2019-01-29T10:57:15.122Z,91.25
2019-01-29T10:59:45.656Z,90.81
2019-01-29T11:02:14.007Z,91.05
2019-01-29T11:04:42.573Z,90.77
2019-01-29T11:07:12.223Z,90.66
2019-01-29T11:09:41.487Z,90.17
2019-01-29T11:12:11.337Z,89.61
2019-01-29T11:14:39.687Z,88.48
2019-01-29T11:17:08.262Z,88.81
2019-01-29T11:19:36.560Z,89.33
2019-01-29T11:22:06.050Z,89.41
2019-01-29T11:24:34.644Z,88.06
2019-01-29T11:27:03.028Z,87.41
2019-01-29T11:29:31.702Z,88.02
2019-01-29T11:32:03.712Z,88.40
2019-01-29T11:34:31.882Z,87.69
2019-01-29T11:37:00.415Z,87.69
2019-01-29T11:39:28.705Z,87.48
2019-01-29T11:42:00.901Z,87.35
2019-01-29T11:44:29.069Z,87.45
2019-01-29T11:46:57.288Z,86.49
2019-01-29T11:49:25.726Z,85.95
2019-01-29T11:51:54.237Z,85.83
2019-01-29T11:54:22.623Z,85.81
2019-01-29T11:56:51.594Z,85.84
2019-01-29T11:59:19.825Z,85.91
2019-01-29T12:01:48.489Z,83.24
2019-01-29T12:04:16.708Z,81.58
2019-01-29T12:06:45.898Z,81.52
2019-01-29T12:09:14.265Z,82.11
2019-01-29T12:11:42.483Z,81.27
2019-01-29T12:14:10.753Z,82.93
2019-01-29T12:16:39.128Z,82.92
2019-01-29T12:19:07.889Z,82.73
2019-01-29T12:21:36.117Z,81.59
2019-01-29T12:24:04.322Z,82.66
2019-01-29T12:26:35.042Z,81.98
2019-01-29T12:29:03.622Z,82.40
2019-01-29T12:31:32.232Z,81.75
2019-01-29T12:34:00.413Z,82.02
2019-01-29T12:36:28.650Z,81.55
2019-01-29T12:38:57.059Z,81.50
2019-01-29T12:41:25.798Z,81.78
2019-01-29T12:43:55.025Z,80.49
2019-01-29T12:46:23.527Z,80.98
2019-01-29T12:48:52.738Z,81.49
2019-01-29T12:51:30.710Z,81.79
2019-01-29T12:53:59.069Z,82.15
2019-01-29T12:56:28.380Z,82.00
2019-01-29T12:58:56.479Z,81.19
2019-01-29T13:01:25.704Z,80.52
2019-01-29T13:03:54.338Z,80.36
2019-01-29T13:06:25.806Z,80.18
2019-01-29T13:08:56.924Z,80.14
2019-01-29T13:11:25.139Z,79.53
2019-01-29T13:13:53.584Z,80.83
2019-01-29T13:16:21.690Z,81.14
2019-01-29T13:18:50.837Z,81.53
2019-01-29T13:21:19.337Z,80.38
2019-01-29T13:23:47.674Z,79.80
2019-01-29T13:26:16.080Z,78.90
2019-01-29T13:28:47.786Z,79.86
2019-01-29T13:31:16.982Z,80.10
2019-01-29T13:33:45.507Z,80.66
2019-01-29T13:36:13.513Z,81.92
2019-01-29T13:38:42.138Z,81.39
2019-01-29T13:41:11.005Z,82.08
2019-01-29T13:43:39.958Z,82.15
2019-01-29T13:46:08.403Z,83.34
2019-01-29T13:48:40.042Z,84.25
2019-01-29T13:51:08.893Z,84.41
2019-01-29T13:53:42.519Z,83.60
2019-01-29T13:56:11.198Z,83.99
2019-01-29T13:58:46.442Z,83.41
2019-01-29T14:01:16.660Z,83.53
2019-01-29T14:03:45.438Z,83.48
2019-01-29T14:06:13.917Z,83.99
2019-01-29T14:08:44.485Z,83.89
2019-01-29T14:11:13.424Z,84.03
2019-01-29T14:13:43.968Z,84.17
2019-01-29T14:16:13.664Z,83.99
2019-01-29T14:18:42.281Z,84.30
2019-01-29T14:21:10.552Z,84.76
2019-01-29T14:23:38.825Z,84.35
2019-01-29T14:26:07.927Z,83.06
2019-01-29T14:28:36.689Z,82.03
2019-01-29T14:31:09.201Z,82.61
2019-01-29T14:33:38.255Z,81.98
2019-01-29T14:36:16.232Z,83.29
2019-01-29T14:39:12.217Z,82.67
2019-01-29T14:41:43.377Z,81.88
2019-01-29T14:44:27.020Z,81.00
2019-01-29T14:46:56.796Z,79.62
2019-01-29T14:49:29.993Z,78.28
2019-01-29T14:52:00.028Z,76.01
2019-01-29T14:54:28.374Z,76.73
2019-01-29T14:56:57.420Z,77.36
2019-01-29T14:59:25.854Z,77.42
2019-01-29T15:01:54.016Z,77.10
2019-01-29T15:04:22.541Z,76.12
2019-01-29T15:06:51.492Z,73.81
2019-01-29T15:09:20.158Z,74.64
2019-01-29T15:11:49.363Z,75.07
2019-01-29T15:14:17.834Z,75.10
2019-01-29T15:17:05.727Z,74.39
2019-01-29T15:19:34.881Z,75.76
2019-01-29T15:22:07.011Z,75.04
2019-01-29T15:24:35.970Z,75.48
2019-01-29T15:27:06.084Z,74.88
2019-01-29T15:29:44.269Z,75.59
2019-01-29T15:32:12.620Z,75.19
2019-01-29T15:34:42.029Z,74.89
2019-01-29T15:37:10.878Z,74.51
2019-01-29T15:39:39.046Z,75.37
2019-01-29T15:42:07.308Z,76.11
2019-01-29T15:44:35.891Z,75.96
2019-01-29T15:47:06.300Z,76.49
2019-01-29T15:49:35.227Z,76.37
2019-01-29T15:52:03.779Z,76.64
2019-01-29T15:54:32.011Z,76.29
2019-01-29T15:57:02.443Z,76.90
2019-01-29T15:59:31.058Z,77.37
2019-01-29T16:01:59.473Z,76.23
2019-01-29T16:04:28.508Z,77.68
2019-01-29T16:06:56.481Z,77.36
2019-01-29T16:09:24.723Z,77.26
2019-01-29T16:11:54.471Z,77.26
2019-01-29T16:14:22.394Z,77.56
2019-01-29T16:16:50.863Z,77.96
2019-01-29T16:19:20.400Z,78.60
2019-01-29T16:21:49.221Z,78.60
2019-01-29T16:24:17.560Z,78.63
2019-01-29T16:26:45.792Z,78.77
2019-01-29T16:29:14.811Z,78.77
2019-01-29T16:31:43.463Z,78.76
2019-01-29T16:34:11.841Z,79.30
2019-01-29T16:36:40.152Z,79.30
2019-01-29T16:39:09.559Z,79.31
2019-01-29T16:41:37.994Z,79.89
2019-01-29T16:44:07.026Z,80.18
2019-01-29T16:46:35.312Z,79.93
2019-01-29T16:49:04.433Z,80.43
2019-01-29T16:51:41.869Z,81.33
2019-01-29T16:54:04.460Z,81.33
2019-01-29T16:56:32.658Z,81.54
2019-01-29T16:59:01.345Z,81.90
2019-01-29T17:01:30.813Z,82.50
2019-01-29T17:03:59.049Z,82.30
2019-01-29T17:06:29.401Z,82.46
2019-01-29T17:08:58.285Z,82.52
2019-01-29T17:11:26.352Z,82.67
2019-01-29T17:13:54.941Z,83.11
2019-01-29T17:16:24.787Z,83.27
2019-01-29T17:18:53.236Z,82.80
2019-01-29T17:21:21.475Z,82.85
2019-01-29T17:23:50.405Z,83.29
2019-01-29T17:26:19.005Z,83.36
2019-01-29T17:28:47.433Z,83.30
2019-01-29T17:31:16.568Z,83.67
2019-01-29T17:33:45.162Z,83.84
2019-01-29T17:36:14.004Z,83.86
2019-01-29T17:38:44.665Z,84.35
2019-01-29T17:41:13.262Z,84.43
2019-01-29T17:43:42.708Z,84.59
2019-01-29T17:46:13.785Z,84.94
2019-01-29T17:48:43.520Z,85.41
2019-01-29T17:51:12.507Z,85.41
2019-01-29T17:53:40.771Z,85.58
2019-01-29T17:56:09.765Z,85.51
2019-01-29T17:58:39.517Z,85.73
2019-01-29T18:01:08.708Z,85.85
2019-01-29T18:03:38.823Z,86.01
2019-01-29T18:06:09.836Z,86.21
2019-01-29T18:08:49.499Z,86.00
2019-01-29T18:11:09.459Z,86.21
2019-01-29T18:13:37.625Z,85.85
2019-01-29T18:16:06.094Z,85.57
2019-01-29T18:18:34.706Z,86.08
2019-01-29T18:21:02.951Z,86.22
2019-01-29T18:23:30.856Z,86.49
2019-01-29T18:25:59.132Z,86.48
2019-01-29T18:28:27.984Z,86.52
2019-01-29T18:30:56.088Z,86.47
2019-01-29T18:33:24.358Z,86.47
2019-01-29T18:35:53.309Z,86.68
2019-01-29T18:38:22.009Z,86.58
2019-01-29T18:40:53.012Z,86.81
2019-01-29T18:43:21.556Z,86.83
2019-01-29T18:45:50.091Z,86.68
2019-01-29T18:48:19.547Z,86.88
2019-01-29T18:50:48.231Z,86.68
2019-01-29T18:53:18.653Z,87.05
2019-01-29T18:55:46.922Z,87.83
2019-01-29T18:58:15.446Z,87.85
2019-01-29T19:00:54.016Z,87.92
2019-01-29T19:03:18.185Z,87.37
2019-01-29T19:05:49.867Z,87.87
2019-01-29T19:08:19.471Z,87.34
2019-01-29T19:10:51.210Z,87.34
2019-01-29T19:13:19.648Z,87.23
2019-01-29T19:15:48.458Z,86.74
2019-01-29T19:18:17.402Z,86.67
2019-01-29T19:20:46.938Z,86.67
2019-01-29T19:23:15.127Z,86.41
2019-01-29T19:25:43.653Z,86.19
2019-01-29T19:28:21.437Z,85.99
2019-01-29T19:30:43.124Z,86.11
2019-01-29T19:33:11.342Z,86.25
2019-01-29T19:35:40.344Z,86.34
2019-01-29T19:38:09.008Z,86.12
2019-01-29T19:40:37.504Z,85.89
2019-01-29T19:43:05.828Z,85.66
2019-01-29T19:45:34.639Z,85.79
2019-01-29T19:48:04.964Z,84.62
2019-01-29T19:50:33.269Z,84.55
2019-01-29T19:53:02.174Z,84.79
2019-01-29T19:55:31.658Z,84.38
2019-01-29T19:58:08.677Z,84.13
2019-01-29T20:00:32.905Z,84.13
2019-01-29T20:03:01.365Z,83.87
2019-01-29T20:05:31.206Z,84.35
2019-01-29T20:07:59.737Z,84.65
2019-01-29T20:10:28.132Z,83.94
2019-01-29T20:12:56.401Z,83.94
2019-01-29T20:15:24.993Z,83.59
2019-01-29T20:17:54.556Z,82.96
2019-01-29T20:20:32.869Z,83.00
2019-01-29T20:23:07.690Z,82.80
2019-01-29T20:25:32.485Z,83.09
2019-01-29T20:28:00.784Z,83.10
2019-01-29T20:30:30.971Z,82.01
2019-01-29T20:33:05.248Z,81.40
2019-01-29T20:35:35.529Z,80.93
2019-01-29T20:38:04.285Z,80.93
2019-01-29T20:40:32.787Z,80.23
2019-01-29T20:43:01.580Z,78.58
2019-01-29T20:45:30.881Z,78.58
2019-01-29T20:48:17.894Z,78.33
2019-01-29T20:50:46.448Z,77.97
2019-01-29T20:53:16.857Z,77.97
2019-01-29T20:55:46.351Z,78.29
2019-01-29T20:58:14.688Z,77.91
2019-01-29T21:00:42.856Z,77.91
2019-01-29T21:03:11.163Z,78.44
2019-01-29T21:05:39.869Z,77.33
2019-01-29T21:08:08.774Z,76.96
2019-01-29T21:10:37.375Z,77.57
2019-01-29T21:13:05.783Z,78.47
2019-01-29T21:15:38.644Z,78.26
2019-01-29T21:18:06.751Z,79.84
2019-01-29T21:20:35.246Z,79.84
2019-01-29T21:23:06.565Z,79.29
2019-01-29T21:25:36.343Z,79.29
2019-01-29T21:28:04.717Z,79.72
2019-01-29T21:30:44.144Z,80.53
2019-01-29T21:33:13.222Z,80.90
2019-01-29T21:35:41.657Z,81.92
2019-01-29T21:38:10.228Z,81.92
2019-01-29T21:40:41.138Z,82.34
2019-01-29T21:43:09.310Z,83.14
2019-01-29T21:45:37.741Z,83.14
2019-01-29T21:48:06.566Z,83.90
2019-01-29T21:50:36.293Z,83.64
2019-01-29T21:53:05.341Z,84.11
2019-01-29T21:55:33.669Z,84.43
2019-01-29T21:58:02.220Z,84.43
2019-01-29T22:00:36.617Z,84.44
2019-01-29T22:03:05.668Z,84.46
2019-01-29T22:05:34.797Z,85.39
2019-01-29T22:08:03.768Z,85.63
2019-01-29T22:10:32.244Z,85.59
2019-01-29T22:13:00.513Z,85.59
2019-01-29T22:15:29.443Z,85.99
2019-01-29T22:17:58.091Z,86.07
2019-01-29T22:20:26.403Z,86.07
2019-01-29T22:22:54.582Z,86.57
2019-01-29T22:25:23.715Z,86.56
2019-01-29T22:27:53.728Z,86.56
2019-01-29T22:30:29.015Z,86.61
2019-01-29T22:32:57.256Z,86.61
2019-01-29T22:35:26.549Z,86.97
2019-01-29T22:37:55.176Z,86.99
2019-01-29T22:40:24.365Z,87.28
2019-01-29T22:42:53.909Z,87.98
2019-01-29T22:45:22.573Z,87.98
2019-01-29T22:47:51.635Z,87.73
2019-01-29T22:50:22.515Z,87.91
2019-01-29T22:52:50.786Z,87.89
2019-01-29T22:55:19.925Z,88.18
2019-01-29T22:57:48.934Z,87.94
2019-01-29T23:00:42.830Z,87.94
2019-01-29T23:03:12.255Z,87.94
2019-01-29T23:05:41.327Z,87.94
2019-01-29T23:08:09.833Z,88.03
2019-01-29T23:10:38.709Z,88.03
2019-01-29T23:13:07.389Z,87.91
2019-01-29T23:18:31.685Z,88.85
2019-01-29T23:21:02.722Z,88.85
2019-01-29T23:23:31.246Z,88.89
2019-01-29T23:26:00.586Z,88.64
2019-01-29T23:28:28.805Z,88.64
2019-01-29T23:30:57.618Z,89.13
2019-01-29T23:33:25.692Z,89.28
2019-01-29T23:35:54.935Z,89.28
2019-01-29T23:38:27.451Z,89.36
2019-01-29T23:40:55.775Z,89.54
2019-01-29T23:43:24.016Z,89.65
2019-01-29T23:45:52.300Z,89.58
2019-01-29T23:48:22.277Z,89.58
2019-01-29T23:50:51.594Z,89.75
2019-01-29T23:53:20.277Z,89.75
2019-01-29T23:55:48.965Z,90.00
2019-01-29T23:58:19.085Z,90.00
